createdAt,value
2022-11-10T00:00:09.934Z,78.50
2022-11-10T00:05:39.977Z,83.60
2022-11-10T00:11:01.536Z,88.60
2022-11-10T00:16:29.682Z,99.20
2022-11-10T00:21:38.105Z,88.10
2022-11-10T00:26:46.228Z,91.20
2022-11-10T00:31:53.480Z,89.30
2022-11-10T00:37:01.153Z,122.40
2022-11-10T00:42:09.074Z,126.20
2022-11-10T00:47:16.120Z,114.60
2022-11-10T00:52:23.408Z,100.20
2022-11-10T00:59:45.263Z,97.50
2022-11-10T01:04:52.732Z,109.40
2022-11-10T01:10:00.226Z,108.30
2022-11-10T01:15:08.785Z,94.20
2022-11-10T01:20:16.241Z,92.00
2022-11-10T01:25:24.497Z,89.40
2022-11-10T01:30:32.243Z,88.70
2022-11-10T01:35:39.451Z,94.30
2022-11-10T01:40:47.019Z,84.30
2022-11-10T01:45:56.497Z,95.00
2022-11-10T01:51:08.490Z,81.30
2022-11-10T01:56:17.614Z,91.40
2022-11-10T02:01:25.721Z,76.10
2022-11-10T02:06:35.645Z,85.70
2022-11-10T02:11:44.397Z,78.10
2022-11-10T02:16:51.596Z,70.80
2022-11-10T02:22:00.278Z,82.00
2022-11-10T02:27:07.274Z,72.70
2022-11-10T02:32:14.679Z,71.40
2022-11-10T02:37:21.764Z,76.00
2022-11-10T02:47:34.713Z,77.60
2022-11-10T02:57:47.558Z,69.70
2022-11-10T03:02:58.789Z,70.20
2022-11-10T03:18:07.479Z,67.00
2022-11-10T03:23:14.994Z,71.30
2022-11-10T03:28:23.021Z,72.00
2022-11-10T03:33:30.310Z,66.30
2022-11-10T03:38:37.819Z,68.80
2022-11-10T03:48:53.636Z,59.10
2022-11-10T03:54:01.397Z,56.20
2022-11-10T03:59:09.387Z,65.60
2022-11-10T04:04:30.519Z,64.40
2022-11-10T04:09:37.709Z,64.40
2022-11-10T04:15:02.427Z,57.50
2022-11-10T04:20:12.142Z,60.00
2022-11-10T04:25:19.227Z,67.00
2022-11-10T04:30:26.688Z,68.00
2022-11-10T04:35:34.205Z,63.70
2022-11-10T04:45:49.823Z,65.70
2022-11-10T04:50:57.535Z,70.90
2022-11-10T04:56:04.640Z,62.10
2022-11-10T05:01:14.094Z,59.80
2022-11-10T05:06:21.095Z,55.30
2022-11-10T05:11:28.695Z,54.50
2022-11-10T05:16:35.902Z,65.90
2022-11-10T05:21:43.085Z,67.10
2022-11-10T05:31:55.763Z,58.10
2022-11-10T05:37:03.318Z,58.80
2022-11-10T05:42:10.555Z,56.70
2022-11-10T05:47:17.917Z,65.10
2022-11-10T05:52:25.290Z,72.70
2022-11-10T05:57:32.807Z,56.40
2022-11-10T06:02:40.476Z,58.70
2022-11-10T06:07:47.580Z,65.40
2022-11-10T06:12:55.241Z,59.80
2022-11-10T06:18:02.420Z,61.30
2022-11-10T06:28:15.938Z,59.30
2022-11-10T06:33:23.676Z,53.90
2022-11-10T06:38:31.199Z,55.30
2022-11-10T06:43:38.058Z,48.10
2022-11-10T06:48:45.295Z,56.10
2022-11-10T06:59:31.217Z,57.50
2022-11-10T07:04:38.350Z,57.80
2022-11-10T07:14:50.667Z,50.10
2022-11-10T07:19:57.839Z,41.30
2022-11-10T07:25:05.679Z,55.50
2022-11-10T07:30:15.041Z,50.80
2022-11-10T07:35:22.335Z,54.10
2022-11-10T07:40:30.585Z,55.50
2022-11-10T07:45:37.549Z,43.20
2022-11-10T07:50:44.864Z,46.60
2022-11-10T07:55:52.532Z,58.90
2022-11-10T08:01:00.275Z,57.90
2022-11-10T08:06:08.757Z,58.20
2022-11-10T08:11:15.909Z,60.10
2022-11-10T08:16:23.012Z,42.50
2022-11-10T08:21:30.367Z,43.00
2022-11-10T08:26:38.436Z,52.40
2022-11-10T08:31:46.356Z,58.50
2022-11-10T08:36:54.390Z,49.20
2022-11-10T08:42:01.893Z,55.00
2022-11-10T08:47:09.214Z,46.20
2022-11-10T08:52:16.160Z,49.50
2022-11-10T08:57:23.412Z,60.30
2022-11-10T09:02:30.766Z,59.60
2022-11-10T09:07:46.033Z,42.50
2022-11-10T09:12:53.063Z,51.00
2022-11-10T09:18:03.017Z,41.40
2022-11-10T09:23:11.699Z,56.30
2022-11-10T09:28:20.308Z,57.90
2022-11-10T09:33:27.709Z,60.30
2022-11-10T09:38:35.569Z,62.20
2022-11-10T09:43:46.970Z,64.60
2022-11-10T09:48:57.624Z,57.30
2022-11-10T09:54:08.183Z,53.90
2022-11-10T09:59:23.679Z,55.70
2022-11-10T10:04:51.675Z,57.40
2022-11-10T10:10:05.563Z,65.00
2022-11-10T10:15:25.496Z,51.00
2022-11-10T10:20:43.659Z,52.60
2022-11-10T10:25:53.640Z,49.00
2022-11-10T10:31:13.679Z,50.30
2022-11-10T10:36:24.734Z,36.70
2022-11-10T10:41:34.822Z,44.40
2022-11-10T10:46:50.259Z,42.90
2022-11-10T10:52:08.339Z,48.20
2022-11-10T10:57:25.751Z,52.40
2022-11-10T11:02:34.154Z,42.50
2022-11-10T11:07:41.508Z,46.70
2022-11-10T11:12:48.602Z,43.00
2022-11-10T11:18:00.214Z,38.90
2022-11-10T11:23:15.029Z,37.70
2022-11-10T11:28:30.629Z,42.40
2022-11-10T11:33:43.564Z,45.90
2022-11-10T11:38:59.945Z,42.70
2022-11-10T11:44:28.765Z,38.70
2022-11-10T11:50:08.912Z,33.30
2022-11-10T11:55:31.384Z,44.60
2022-11-10T12:00:52.409Z,39.70
2022-11-10T12:06:15.740Z,33.80
2022-11-10T12:11:32.867Z,44.10
2022-11-10T12:16:43.428Z,53.30
2022-11-10T12:21:55.816Z,43.00
2022-11-10T12:27:10.483Z,40.20
2022-11-10T12:32:23.760Z,35.80
2022-11-10T12:37:36.565Z,44.80
2022-11-10T12:42:46.107Z,45.30
2022-11-10T12:47:54.568Z,45.30
2022-11-10T12:53:04.746Z,44.70
2022-11-10T12:58:15.185Z,37.70
2022-11-10T13:03:32.035Z,43.30
2022-11-10T13:08:50.123Z,48.80
2022-11-10T13:14:00.833Z,40.60
2022-11-10T13:19:09.645Z,41.20
2022-11-10T13:24:28.671Z,40.90
2022-11-10T13:29:54.994Z,42.90
2022-11-10T13:35:32.917Z,46.60
2022-11-10T13:40:41.244Z,43.40
2022-11-10T13:45:49.318Z,43.30
2022-11-10T13:51:08.552Z,44.00
2022-11-10T13:56:26.096Z,43.90
2022-11-10T14:01:34.172Z,44.30
2022-11-10T14:06:49.572Z,48.70
2022-11-10T14:12:02.149Z,42.50
2022-11-10T14:17:20.295Z,49.30
2022-11-10T14:22:33.527Z,41.80
2022-11-10T14:27:42.022Z,45.30
2022-11-10T14:32:59.167Z,47.30
2022-11-10T14:48:59.823Z,34.50
2022-11-10T14:54:07.605Z,49.50
2022-11-10T14:59:16.458Z,46.40
2022-11-10T15:04:31.155Z,44.20
2022-11-10T15:09:38.730Z,37.10
2022-11-10T15:14:48.769Z,45.90
2022-11-10T15:19:59.075Z,40.50
2022-11-10T15:25:19.181Z,41.30
2022-11-10T15:30:27.649Z,43.10
2022-11-10T15:35:34.832Z,34.70
2022-11-10T15:40:48.713Z,39.20
2022-11-10T15:45:59.966Z,40.40
2022-11-10T15:51:10.102Z,40.30
2022-11-10T15:56:19.666Z,37.10
2022-11-10T16:01:27.640Z,36.10
2022-11-10T16:06:34.957Z,34.00
2022-11-10T16:11:44.637Z,39.90
2022-11-10T16:16:52.169Z,39.00
2022-11-10T16:22:00.049Z,32.00
2022-11-10T16:27:12.214Z,33.20
2022-11-10T16:32:19.421Z,33.90
2022-11-10T16:37:26.451Z,41.90
2022-11-10T16:42:33.775Z,36.80
2022-11-10T16:47:41.053Z,37.40
2022-11-10T16:52:48.408Z,40.10
2022-11-10T16:57:55.501Z,42.60
2022-11-10T17:03:07.616Z,38.40
2022-11-10T17:08:22.125Z,41.80
2022-11-10T17:13:30.215Z,43.80
2022-11-10T17:18:40.994Z,44.50
2022-11-10T17:23:48.394Z,45.00
2022-11-10T17:28:55.866Z,45.90
2022-11-10T17:34:03.420Z,45.90
2022-11-10T17:39:13.858Z,43.20
2022-11-10T17:44:21.807Z,48.80
2022-11-10T17:49:28.893Z,45.60
2022-11-10T17:54:36.424Z,52.50
2022-11-10T17:59:43.641Z,44.80
2022-11-10T18:04:50.919Z,46.60
2022-11-10T18:09:58.031Z,44.40
2022-11-10T18:15:05.545Z,49.10
2022-11-10T18:20:15.177Z,47.00
2022-11-10T18:25:22.733Z,53.00
2022-11-10T18:30:34.941Z,50.90
2022-11-10T18:35:43.713Z,52.60
2022-11-10T18:40:51.177Z,50.90
2022-11-10T18:45:58.866Z,54.10
2022-11-10T18:51:09.367Z,49.10
2022-11-10T18:56:16.749Z,48.50
2022-11-10T19:01:24.450Z,52.00
2022-11-10T19:06:31.883Z,46.20
2022-11-10T19:11:39.101Z,48.00
2022-11-10T19:16:46.720Z,50.60
2022-11-10T19:21:54.965Z,54.00
2022-11-10T19:27:02.127Z,57.20
2022-11-10T19:32:09.301Z,56.70
2022-11-10T19:37:16.498Z,50.50
2022-11-10T19:42:23.505Z,57.70
2022-11-10T19:57:44.427Z,60.10
2022-11-10T20:02:51.669Z,56.60
2022-11-10T20:08:15.906Z,65.90
2022-11-10T20:13:23.479Z,55.90
2022-11-10T20:18:30.882Z,60.20
2022-11-10T20:23:38.458Z,54.30
2022-11-10T20:28:46.688Z,61.20
2022-11-10T20:33:54.930Z,59.40
2022-11-10T20:39:02.245Z,57.50
2022-11-10T20:44:09.704Z,59.20
2022-11-10T20:49:16.885Z,48.10
2022-11-10T20:59:30.224Z,56.20
2022-11-10T21:04:42.900Z,59.10
2022-11-10T21:09:50.701Z,56.00
2022-11-10T21:14:58.570Z,57.00
2022-11-10T21:20:06.212Z,61.50
2022-11-10T21:25:14.283Z,58.60
2022-11-10T21:30:24.294Z,53.90
2022-11-10T21:35:36.818Z,60.10
2022-11-10T21:40:45.403Z,53.90
2022-11-10T21:45:57.970Z,51.70
2022-11-10T21:51:06.092Z,55.60
2022-11-10T21:56:14.222Z,58.30
2022-11-10T22:01:21.572Z,58.30
2022-11-10T22:06:49.072Z,55.10
2022-11-10T22:12:13.845Z,54.90
2022-11-10T22:17:37.676Z,53.70
2022-11-10T22:22:45.548Z,49.10
2022-11-10T22:27:53.092Z,56.40
2022-11-10T22:33:21.524Z,56.50
2022-11-10T22:38:29.017Z,51.30
2022-11-10T22:43:53.711Z,55.70
2022-11-10T22:49:01.635Z,49.40
2022-11-10T22:54:12.941Z,54.70
2022-11-10T22:59:21.081Z,52.00
2022-11-10T23:04:28.660Z,61.70
2022-11-10T23:09:36.145Z,58.70
2022-11-10T23:14:43.028Z,54.20
2022-11-10T23:19:50.264Z,55.80
2022-11-10T23:24:57.824Z,59.30
2022-11-10T23:30:05.487Z,54.70
2022-11-10T23:35:14.460Z,55.70
2022-11-10T23:40:21.512Z,54.30
2022-11-10T23:45:52.668Z,56.70
2022-11-10T23:56:03.591Z,53.90
